SWR6IN EBBR-LFPG
Flight info
| Callsign | SWR6IN |
|---|---|
| Flight time | 0h 41m |
| Altitude | 19000 |
| Route | CIV Y50 IDOKO/N0415F170 Y50 MATIX |
| Aircraft | A359/H-SDE2E3GHIJ3J4J5LM1ORWXY/LB1D1 |
Departure
| Time | 2026-05-05 18:19 |
|---|---|
| Airport | Brussels Airport (EBBR) |
Arrival
| Time | 2026-05-05 19:00 |
|---|---|
| Airport | Charles de Gaulle International Airport (LFPG) |
| Time | Latitude | Longitude | Altitude | Speed | Heading |
|---|---|---|---|---|---|
| 2026-05-05 17:51 | 50.90543 | 4.49033 | 123 ft | 0 kts | 189° |
| 2026-05-05 18:08 | 50.90547 | 4.49034 | 127 ft | 2 kts | 189° |
| 2026-05-05 18:08 | 50.90562 | 4.49038 | 122 ft | 2 kts | 189° |
| 2026-05-05 18:08 | 50.90577 | 4.49043 | 124 ft | 2 kts | 189° |
| 2026-05-05 18:09 | 50.90593 | 4.49047 | 122 ft | 2 kts | 189° |
| 2026-05-05 18:09 | 50.90608 | 4.49051 | 122 ft | 2 kts | 189° |
| 2026-05-05 18:09 | 50.90624 | 4.49056 | 122 ft | 3 kts | 176° |
| 2026-05-05 18:09 | 50.90642 | 4.49049 | 122 ft | 3 kts | 139° |
| 2026-05-05 18:10 | 50.90652 | 4.49029 | 122 ft | 0 kts | 103° |
| 2026-05-05 18:10 | 50.90652 | 4.49034 | 122 ft | 3 kts | 102° |
| 2026-05-05 18:10 | 50.90637 | 4.49121 | 123 ft | 10 kts | 123° |
| 2026-05-05 18:10 | 50.90577 | 4.49184 | 124 ft | 12 kts | 154° |
| 2026-05-05 18:11 | 50.90473 | 4.49260 | 123 ft | 21 kts | 155° |
| 2026-05-05 18:11 | 50.90367 | 4.49337 | 125 ft | 13 kts | 153° |
| 2026-05-05 18:11 | 50.90317 | 4.49391 | 120 ft | 6 kts | 153° |
| 2026-05-05 18:11 | 50.90259 | 4.49394 | 130 ft | 11 kts | 190° |
| 2026-05-05 18:12 | 50.90164 | 4.49356 | 136 ft | 17 kts | 194° |
| 2026-05-05 18:12 | 50.90029 | 4.49301 | 138 ft | 23 kts | 194° |
| 2026-05-05 18:12 | 50.89859 | 4.49231 | 146 ft | 26 kts | 194° |
| 2026-05-05 18:12 | 50.89708 | 4.49170 | 154 ft | 1 kts | 194° |
| 2026-05-05 18:13 | 50.89686 | 4.49161 | 156 ft | 9 kts | 195° |
| 2026-05-05 18:13 | 50.89611 | 4.49175 | 161 ft | 14 kts | 152° |
| 2026-05-05 18:13 | 50.89497 | 4.49160 | 166 ft | 20 kts | 195° |
| 2026-05-05 18:13 | 50.89424 | 4.49130 | 170 ft | 0 kts | 194° |
| 2026-05-05 18:14 | 50.89422 | 4.49130 | 170 ft | 1 kts | 194° |
| 2026-05-05 18:14 | 50.89401 | 4.49121 | 171 ft | 7 kts | 194° |
| 2026-05-05 18:15 | 50.89333 | 4.49091 | 173 ft | 12 kts | 192° |
| 2026-05-05 18:15 | 50.89234 | 4.49053 | 179 ft | 16 kts | 194° |
| 2026-05-05 18:15 | 50.89223 | 4.49049 | 180 ft | 0 kts | 194° |
| 2026-05-05 18:17 | 50.89204 | 4.49043 | 181 ft | 11 kts | 187° |
| 2026-05-05 18:17 | 50.89160 | 4.49135 | 182 ft | 13 kts | 81° |
| 2026-05-05 18:18 | 50.89168 | 4.49180 | 182 ft | 0 kts | 72° |
| 2026-05-05 18:18 | 50.89182 | 4.49242 | 182 ft | 23 kts | 71° |
| 2026-05-05 18:18 | 50.89323 | 4.49851 | 191 ft | 98 kts | 70° |
| 2026-05-05 18:18 | 50.89640 | 4.51210 | 198 ft | 163 kts | 70° |
| 2026-05-05 18:19 | 50.90032 | 4.52859 | 1131 ft | 154 kts | 65° |
| 2026-05-05 18:19 | 50.90495 | 4.54428 | 1861 ft | 168 kts | 62° |
| 2026-05-05 18:19 | 50.91028 | 4.56250 | 2203 ft | 202 kts | 63° |
| 2026-05-05 18:19 | 50.91664 | 4.58428 | 2657 ft | 230 kts | 63° |
| 2026-05-05 18:20 | 50.92354 | 4.60782 | 3492 ft | 240 kts | 63° |
| 2026-05-05 18:20 | 50.93065 | 4.63214 | 4373 ft | 247 kts | 64° |
| 2026-05-05 18:20 | 50.93646 | 4.65819 | 5246 ft | 255 kts | 72° |
| 2026-05-05 18:20 | 50.94027 | 4.68607 | 6146 ft | 263 kts | 83° |
| 2026-05-05 18:21 | 50.93835 | 4.71519 | 7031 ft | 272 kts | 107° |
| 2026-05-05 18:21 | 50.92850 | 4.74093 | 8044 ft | 278 kts | 133° |
| 2026-05-05 18:21 | 50.91237 | 4.75797 | 9105 ft | 283 kts | 155° |
| 2026-05-05 18:21 | 50.89392 | 4.76913 | 10154 ft | 287 kts | 161° |
| 2026-05-05 18:22 | 50.87358 | 4.77460 | 10709 ft | 310 kts | 180° |
| 2026-05-05 18:22 | 50.85175 | 4.76595 | 11055 ft | 339 kts | 207° |
| 2026-05-05 18:22 | 50.83347 | 4.74116 | 11593 ft | 356 kts | 233° |
| 2026-05-05 18:22 | 50.82182 | 4.70665 | 12385 ft | 365 kts | 247° |
| 2026-05-05 18:23 | 50.81196 | 4.66917 | 13224 ft | 373 kts | 248° |
| 2026-05-05 18:23 | 50.80188 | 4.63100 | 14017 ft | 379 kts | 247° |
| 2026-05-05 18:23 | 50.79142 | 4.59252 | 14881 ft | 382 kts | 246° |
| 2026-05-05 18:23 | 50.78076 | 4.55398 | 15818 ft | 382 kts | 245° |
| 2026-05-05 18:24 | 50.77006 | 4.51575 | 16882 ft | 380 kts | 244° |
| 2026-05-05 18:24 | 50.75931 | 4.47762 | 17856 ft | 380 kts | 244° |
| 2026-05-05 18:24 | 50.74842 | 4.43918 | 18520 ft | 385 kts | 244° |
| 2026-05-05 18:24 | 50.73741 | 4.40046 | 18809 ft | 389 kts | 244° |
| 2026-05-05 18:25 | 50.72607 | 4.36068 | 18868 ft | 409 kts | 244° |
| 2026-05-05 18:25 | 50.71807 | 4.33266 | 18866 ft | 420 kts | 244° |
| 2026-05-05 18:25 | 50.70206 | 4.27664 | 18868 ft | 419 kts | 244° |
| 2026-05-05 18:25 | 50.69038 | 4.23576 | 18878 ft | 398 kts | 244° |
| 2026-05-05 18:26 | 50.67920 | 4.19671 | 18877 ft | 387 kts | 244° |
| 2026-05-05 18:26 | 50.66808 | 4.15803 | 18868 ft | 387 kts | 244° |
| 2026-05-05 18:26 | 50.65696 | 4.11943 | 18864 ft | 387 kts | 244° |
| 2026-05-05 18:26 | 50.64581 | 4.08077 | 18859 ft | 388 kts | 244° |
| 2026-05-05 18:27 | 50.63465 | 4.04214 | 18858 ft | 388 kts | 244° |
| 2026-05-05 18:27 | 50.62346 | 4.00347 | 18853 ft | 388 kts | 244° |
| 2026-05-05 18:27 | 50.61228 | 3.96487 | 18853 ft | 388 kts | 244° |
| 2026-05-05 18:27 | 50.60048 | 3.92670 | 18851 ft | 387 kts | 239° |
| 2026-05-05 18:28 | 50.56390 | 3.86654 | 18854 ft | 382 kts | 210° |
| 2026-05-05 18:28 | 50.53960 | 3.84998 | 18853 ft | 381 kts | 195° |
| 2026-05-05 18:28 | 50.51346 | 3.84400 | 18849 ft | 381 kts | 181° |
| 2026-05-05 18:29 | 50.48715 | 3.84519 | 18848 ft | 381 kts | 176° |
| 2026-05-05 18:29 | 50.46049 | 3.84916 | 18847 ft | 382 kts | 173° |
| 2026-05-05 18:29 | 50.43450 | 3.85469 | 18848 ft | 381 kts | 170° |
| 2026-05-05 18:29 | 50.40827 | 3.86102 | 18848 ft | 382 kts | 170° |
| 2026-05-05 18:30 | 50.38198 | 3.86717 | 18846 ft | 381 kts | 171° |
| 2026-05-05 18:30 | 50.35567 | 3.87279 | 18845 ft | 381 kts | 171° |
| 2026-05-05 18:30 | 50.32930 | 3.87790 | 18840 ft | 381 kts | 172° |
| 2026-05-05 18:30 | 50.30297 | 3.88217 | 18843 ft | 381 kts | 173° |
| 2026-05-05 18:31 | 50.27655 | 3.88625 | 18841 ft | 381 kts | 173° |
| 2026-05-05 18:31 | 50.25019 | 3.89046 | 18840 ft | 381 kts | 173° |
| 2026-05-05 18:31 | 50.22381 | 3.89479 | 18841 ft | 381 kts | 173° |
| 2026-05-05 18:31 | 50.19744 | 3.89918 | 18840 ft | 380 kts | 173° |
| 2026-05-05 18:32 | 50.17114 | 3.90360 | 18840 ft | 380 kts | 172° |
| 2026-05-05 18:32 | 50.14480 | 3.90804 | 18838 ft | 381 kts | 172° |
| 2026-05-05 18:32 | 50.13637 | 3.90947 | 18838 ft | 381 kts | 172° |
| 2026-05-05 18:33 | 50.13491 | 3.90971 | 18834 ft | 381 kts | 172° |
| 2026-05-05 18:33 | 50.10853 | 3.91417 | 18839 ft | 381 kts | 172° |
| 2026-05-05 18:33 | 50.08256 | 3.91859 | 18831 ft | 381 kts | 172° |
| 2026-05-05 18:33 | 50.05613 | 3.92308 | 18832 ft | 383 kts | 172° |
| 2026-05-05 18:34 | 50.02968 | 3.92754 | 18830 ft | 382 kts | 172° |
| 2026-05-05 18:34 | 50.00331 | 3.93197 | 18830 ft | 381 kts | 172° |
| 2026-05-05 18:34 | 49.97699 | 3.93641 | 18829 ft | 380 kts | 172° |
| 2026-05-05 18:34 | 49.95086 | 3.94082 | 18619 ft | 374 kts | 172° |
| 2026-05-05 18:35 | 49.92497 | 3.94520 | 17887 ft | 375 kts | 173° |
| 2026-05-05 18:35 | 49.89913 | 3.94953 | 17185 ft | 372 kts | 172° |
| 2026-05-05 18:35 | 49.87338 | 3.95384 | 16513 ft | 370 kts | 172° |
| 2026-05-05 18:35 | 49.84792 | 3.95809 | 15909 ft | 366 kts | 172° |
| 2026-05-05 18:36 | 49.82279 | 3.96229 | 15375 ft | 361 kts | 172° |
| 2026-05-05 18:36 | 49.79781 | 3.96409 | 14941 ft | 360 kts | 180° |
| 2026-05-05 18:36 | 49.77320 | 3.95777 | 14825 ft | 360 kts | 195° |
| 2026-05-05 18:36 | 49.75037 | 3.94106 | 14822 ft | 363 kts | 208° |
| 2026-05-05 18:37 | 49.72896 | 3.92018 | 14820 ft | 364 kts | 211° |
| 2026-05-05 18:37 | 49.70785 | 3.89863 | 14813 ft | 363 kts | 210° |
| 2026-05-05 18:37 | 49.68683 | 3.87703 | 14811 ft | 363 kts | 211° |
| 2026-05-05 18:37 | 49.66585 | 3.85544 | 14813 ft | 362 kts | 212° |
| 2026-05-05 18:38 | 49.64521 | 3.83418 | 14811 ft | 361 kts | 212° |
| 2026-05-05 18:38 | 49.62433 | 3.81272 | 14809 ft | 360 kts | 212° |
| 2026-05-05 18:38 | 49.60342 | 3.79159 | 14807 ft | 359 kts | 211° |
| 2026-05-05 18:38 | 49.58253 | 3.77046 | 14807 ft | 359 kts | 212° |
| 2026-05-05 18:39 | 49.56190 | 3.74942 | 14414 ft | 352 kts | 212° |
| 2026-05-05 18:39 | 49.54235 | 3.72667 | 13700 ft | 353 kts | 220° |
| 2026-05-05 18:39 | 49.53124 | 3.70859 | 13263 ft | 352 kts | 229° |
| 2026-05-05 18:40 | 49.52261 | 3.69134 | 12898 ft | 350 kts | 232° |
| 2026-05-05 18:40 | 49.52069 | 3.68727 | 12811 ft | 350 kts | 232° |
| 2026-05-05 18:40 | 49.51474 | 3.67432 | 12519 ft | 349 kts | 233° |
| 2026-05-05 18:40 | 49.50077 | 3.64375 | 11825 ft | 347 kts | 230° |
| 2026-05-05 18:41 | 49.48479 | 3.61679 | 11208 ft | 344 kts | 225° |
| 2026-05-05 18:41 | 49.47090 | 3.58619 | 10879 ft | 345 kts | 235° |
| 2026-05-05 18:41 | 49.45855 | 3.55512 | 10802 ft | 346 kts | 236° |
| 2026-05-05 18:41 | 49.44614 | 3.52337 | 10805 ft | 347 kts | 236° |
| 2026-05-05 18:42 | 49.43375 | 3.49154 | 10824 ft | 347 kts | 236° |
| 2026-05-05 18:42 | 49.42141 | 3.45973 | 10806 ft | 347 kts | 236° |
| 2026-05-05 18:42 | 49.40948 | 3.42754 | 10809 ft | 347 kts | 240° |
| 2026-05-05 18:42 | 49.39889 | 3.39440 | 10807 ft | 347 kts | 242° |
| 2026-05-05 18:43 | 49.38912 | 3.36038 | 10816 ft | 348 kts | 244° |
| 2026-05-05 18:43 | 49.37962 | 3.32621 | 10809 ft | 348 kts | 244° |
| 2026-05-05 18:43 | 49.37030 | 3.29189 | 10809 ft | 348 kts | 244° |
| 2026-05-05 18:43 | 49.36114 | 3.25762 | 10812 ft | 348 kts | 245° |
| 2026-05-05 18:44 | 49.35204 | 3.22325 | 10808 ft | 348 kts | 245° |
| 2026-05-05 18:44 | 49.34300 | 3.18887 | 10822 ft | 348 kts | 246° |
| 2026-05-05 18:44 | 49.33395 | 3.15443 | 10812 ft | 348 kts | 245° |
| 2026-05-05 18:44 | 49.32492 | 3.12004 | 10814 ft | 348 kts | 246° |
| 2026-05-05 18:45 | 49.31585 | 3.08559 | 10819 ft | 351 kts | 246° |
| 2026-05-05 18:45 | 49.30667 | 3.05070 | 10809 ft | 355 kts | 246° |
| 2026-05-05 18:45 | 49.29739 | 3.01547 | 10815 ft | 358 kts | 246° |
| 2026-05-05 18:45 | 49.28806 | 2.98006 | 10811 ft | 359 kts | 246° |
| 2026-05-05 18:46 | 49.27872 | 2.94467 | 10820 ft | 358 kts | 246° |
| 2026-05-05 18:46 | 49.26939 | 2.90932 | 10816 ft | 357 kts | 246° |
| 2026-05-05 18:46 | 49.26008 | 2.87409 | 10816 ft | 355 kts | 246° |
| 2026-05-05 18:46 | 49.25084 | 2.83919 | 10824 ft | 352 kts | 246° |
| 2026-05-05 18:47 | 49.24169 | 2.80476 | 10818 ft | 351 kts | 246° |
| 2026-05-05 18:47 | 49.23249 | 2.77023 | 10815 ft | 351 kts | 246° |
| 2026-05-05 18:47 | 49.22338 | 2.73609 | 10820 ft | 351 kts | 246° |
| 2026-05-05 18:47 | 49.21403 | 2.70106 | 10820 ft | 351 kts | 246° |
| 2026-05-05 18:48 | 49.20493 | 2.66700 | 10821 ft | 351 kts | 246° |
| 2026-05-05 18:48 | 49.19568 | 2.63252 | 10725 ft | 348 kts | 246° |
| 2026-05-05 18:48 | 49.18655 | 2.59849 | 10040 ft | 347 kts | 247° |
| 2026-05-05 18:48 | 49.17972 | 2.56278 | 9100 ft | 352 kts | 260° |
| 2026-05-05 18:49 | 49.17485 | 2.52627 | 8485 ft | 349 kts | 255° |
| 2026-05-05 18:49 | 49.16769 | 2.49117 | 7853 ft | 345 kts | 251° |
| 2026-05-05 18:49 | 49.16003 | 2.45663 | 7245 ft | 341 kts | 251° |
| 2026-05-05 18:49 | 49.15236 | 2.42247 | 7017 ft | 339 kts | 251° |
| 2026-05-05 18:50 | 49.14737 | 2.39989 | 6989 ft | 340 kts | 253° |
| 2026-05-05 18:50 | 49.14266 | 2.36452 | 6991 ft | 340 kts | 263° |
| 2026-05-05 18:50 | 49.14065 | 2.32855 | 6990 ft | 339 kts | 267° |
| 2026-05-05 18:50 | 49.13990 | 2.29264 | 6996 ft | 338 kts | 270° |
| 2026-05-05 18:51 | 49.13998 | 2.25679 | 6941 ft | 335 kts | 271° |
| 2026-05-05 18:51 | 49.14020 | 2.21033 | 6109 ft | 330 kts | 271° |
| 2026-05-05 18:51 | 49.14034 | 2.17514 | 5304 ft | 332 kts | 271° |
| 2026-05-05 18:51 | 49.14040 | 2.13992 | 4631 ft | 330 kts | 271° |
| 2026-05-05 18:52 | 49.14038 | 2.11670 | 4275 ft | 328 kts | 271° |
| 2026-05-05 18:52 | 49.14025 | 2.08151 | 4027 ft | 327 kts | 271° |
| 2026-05-05 18:52 | 49.13985 | 2.04717 | 3987 ft | 328 kts | 268° |
| 2026-05-05 18:52 | 49.13429 | 2.01339 | 3996 ft | 331 kts | 244° |
| 2026-05-05 18:53 | 49.12019 | 1.98579 | 3993 ft | 333 kts | 219° |
| 2026-05-05 18:53 | 49.10010 | 1.96941 | 3993 ft | 332 kts | 194° |
| 2026-05-05 18:53 | 49.07740 | 1.96682 | 3996 ft | 327 kts | 169° |
| 2026-05-05 18:53 | 49.05520 | 1.97396 | 3990 ft | 326 kts | 162° |
| 2026-05-05 18:54 | 49.04073 | 1.98000 | 3995 ft | 327 kts | 161° |
| 2026-05-05 18:54 | 49.03666 | 1.98175 | 3991 ft | 327 kts | 161° |
| 2026-05-05 18:54 | 49.03202 | 1.98375 | 3989 ft | 327 kts | 161° |
| 2026-05-05 18:55 | 49.01182 | 1.99339 | 3984 ft | 326 kts | 154° |
| 2026-05-05 18:55 | 48.99346 | 2.01249 | 3996 ft | 317 kts | 129° |
| 2026-05-05 18:55 | 48.98180 | 2.04043 | 3990 ft | 311 kts | 108° |
| 2026-05-05 18:55 | 48.97812 | 2.07232 | 3998 ft | 305 kts | 83° |
| 2026-05-05 18:56 | 48.98389 | 2.10278 | 3993 ft | 300 kts | 58° |
| 2026-05-05 18:56 | 48.99693 | 2.12732 | 3985 ft | 299 kts | 44° |
| 2026-05-05 18:56 | 49.00812 | 2.15426 | 3985 ft | 308 kts | 68° |
| 2026-05-05 18:56 | 49.01042 | 2.18685 | 4003 ft | 313 kts | 89° |
| 2026-05-05 18:57 | 49.00871 | 2.21975 | 3998 ft | 312 kts | 91° |
| 2026-05-05 18:57 | 49.00763 | 2.25278 | 3874 ft | 312 kts | 87° |
| 2026-05-05 18:57 | 49.00854 | 2.28549 | 3479 ft | 305 kts | 82° |
| 2026-05-05 18:57 | 49.01050 | 2.31718 | 3024 ft | 295 kts | 81° |
| 2026-05-05 18:58 | 49.01224 | 2.34793 | 2591 ft | 287 kts | 82° |
| 2026-05-05 18:58 | 49.01372 | 2.37775 | 2204 ft | 277 kts | 81° |
| 2026-05-05 18:58 | 49.01513 | 2.40565 | 1844 ft | 251 kts | 81° |
| 2026-05-05 18:58 | 49.01644 | 2.43099 | 1514 ft | 230 kts | 80° |
| 2026-05-05 18:59 | 49.01761 | 2.45394 | 1222 ft | 211 kts | 80° |
| 2026-05-05 18:59 | 49.01874 | 2.47540 | 925 ft | 196 kts | 81° |
| 2026-05-05 18:59 | 49.01982 | 2.49534 | 703 ft | 181 kts | 79° |
| 2026-05-05 18:59 | 49.02062 | 2.51411 | 405 ft | 172 kts | 80° |
| 2026-05-05 19:00 | 49.02161 | 2.53063 | 363 ft | 144 kts | 84° |
| 2026-05-05 19:00 | 49.02225 | 2.54253 | 364 ft | 81 kts | 85° |
| 2026-05-05 19:00 | 49.02230 | 2.54853 | 369 ft | 25 kts | 103° |
| 2026-05-05 19:00 | 49.02186 | 2.55100 | 369 ft | 23 kts | 106° |
| 2026-05-05 19:01 | 49.02145 | 2.55321 | 363 ft | 14 kts | 105° |
| 2026-05-05 19:01 | 49.02127 | 2.55420 | 364 ft | 0 kts | 105° |
| 2026-05-05 19:01 | 49.02123 | 2.55445 | 363 ft | 10 kts | 105° |
| 2026-05-05 19:01 | 49.02114 | 2.55490 | 365 ft | 1 kts | 105° |
| 2026-05-05 19:02 | 49.02088 | 2.55604 | 369 ft | 15 kts | 120° |
| 2026-05-05 19:02 | 49.02004 | 2.55662 | 362 ft | 14 kts | 172° |
| 2026-05-05 19:02 | 49.01920 | 2.55658 | 364 ft | 7 kts | 214° |
| 2026-05-05 19:02 | 49.01894 | 2.55605 | 365 ft | 8 kts | 245° |
| 2026-05-05 19:03 | 49.01888 | 2.55572 | 368 ft | 0 kts | 260° |
| 2026-05-05 19:03 | 49.01886 | 2.55547 | 368 ft | 12 kts | 262° |
| 2026-05-05 19:03 | 49.01879 | 2.55456 | 363 ft | 10 kts | 265° |
| 2026-05-05 19:03 | 49.01873 | 2.55299 | 364 ft | 5 kts | 266° |
| 2026-05-05 19:04 | 49.01869 | 2.55221 | 367 ft | 7 kts | 265° |
| 2026-05-05 19:04 | 49.01864 | 2.55142 | 367 ft | 7 kts | 265° |
| 2026-05-05 19:04 | 49.01860 | 2.55056 | 367 ft | 9 kts | 265° |
| 2026-05-05 19:04 | 49.01855 | 2.54980 | 363 ft | 6 kts | 265° |
| 2026-05-05 19:05 | 49.01853 | 2.54945 | 361 ft | 1 kts | 265° |
| 2026-05-05 19:05 | 49.01853 | 2.54942 | 361 ft | 0 kts | 265° |
| 2026-05-05 19:05 | 49.01848 | 2.54902 | 364 ft | 11 kts | 257° |
| 2026-05-05 19:05 | 49.01783 | 2.54851 | 367 ft | 13 kts | 178° |
| 2026-05-05 19:06 | 49.01691 | 2.54867 | 367 ft | 14 kts | 172° |
| 2026-05-05 19:06 | 49.01589 | 2.54887 | 368 ft | 15 kts | 173° |
| 2026-05-05 19:06 | 49.01483 | 2.54898 | 368 ft | 15 kts | 175° |
| 2026-05-05 19:06 | 49.01381 | 2.54924 | 367 ft | 15 kts | 166° |
| 2026-05-05 19:07 | 49.01283 | 2.54958 | 365 ft | 14 kts | 180° |
| 2026-05-05 19:07 | 49.01228 | 2.54870 | 369 ft | 11 kts | 253° |
| 2026-05-05 19:07 | 49.01223 | 2.54754 | 364 ft | 10 kts | 279° |
| 2026-05-05 19:07 | 49.01265 | 2.54693 | 368 ft | 7 kts | 339° |
| 2026-05-05 19:08 | 49.01304 | 2.54700 | 368 ft | 5 kts | 22° |
| 2026-05-05 19:08 | 49.01341 | 2.54722 | 366 ft | 6 kts | 21° |
| 2026-05-05 19:08 | 49.01393 | 2.54740 | 366 ft | 11 kts | 9° |
| 2026-05-05 19:08 | 49.01471 | 2.54744 | 369 ft | 10 kts | 352° |
| 2026-05-05 19:09 | 49.01531 | 2.54728 | 367 ft | 8 kts | 353° |
| 2026-05-05 19:09 | 49.01578 | 2.54707 | 368 ft | 6 kts | 338° |
| 2026-05-05 19:09 | 49.01617 | 2.54680 | 368 ft | 6 kts | 332° |
| 2026-05-05 19:09 | 49.01650 | 2.54648 | 368 ft | 5 kts | 325° |
| 2026-05-05 19:10 | 49.01680 | 2.54613 | 367 ft | 5 kts | 319° |
| 2026-05-05 19:10 | 49.01712 | 2.54564 | 369 ft | 7 kts | 312° |
| 2026-05-05 19:10 | 49.01745 | 2.54506 | 369 ft | 7 kts | 309° |
| 2026-05-05 19:10 | 49.01770 | 2.54445 | 368 ft | 7 kts | 299° |
| 2026-05-05 19:11 | 49.01791 | 2.54383 | 366 ft | 6 kts | 294° |
| 2026-05-05 19:11 | 49.01804 | 2.54320 | 369 ft | 6 kts | 283° |
| 2026-05-05 19:11 | 49.01810 | 2.54256 | 365 ft | 6 kts | 276° |
| 2026-05-05 19:11 | 49.01812 | 2.54191 | 366 ft | 6 kts | 269° |
| 2026-05-05 19:12 | 49.01809 | 2.54123 | 365 ft | 6 kts | 263° |
| 2026-05-05 19:12 | 49.01794 | 2.54060 | 369 ft | 6 kts | 238° |
| 2026-05-05 19:12 | 49.01764 | 2.54011 | 365 ft | 6 kts | 219° |
| 2026-05-05 19:12 | 49.01726 | 2.53989 | 367 ft | 5 kts | 178° |
| 2026-05-05 19:13 | 49.01696 | 2.54006 | 365 ft | 5 kts | 158° |
| 2026-05-05 19:13 | 49.01676 | 2.54032 | 369 ft | 4 kts | 134° |
| 2026-05-05 19:13 | 49.01669 | 2.54043 | 368 ft | 0 kts | 134° |